Time;durP1;ratioP1;P1;durP2;ratioP2;P2;SDS_P1;SDS_P2;PMS_P1;PMS_P2;Temp;Humidity;BMP_temperature;BMP_pressure;BME280_temperature;BME280_humidity;BME280_pressure;Samples;Min_cycle;Max_cycle;Signal;HPM_P1;HPM_P2
2021/05/14 00:01:36;;;;;;;25.88;7.60;;;10.00;99.90;;;;;;5904960;40;20097;-72
2021/05/14 00:05:41;;;;;;;26.23;7.72;;;10.10;99.90;;;;;;5913826;40;20056;-71
2021/05/14 00:09:46;;;;;;;28.45;8.05;;;10.10;99.90;;;;;;5913636;40;20103;-71
2021/05/14 00:13:53;;;;;;;30.08;7.43;;;10.00;99.90;;;;;;5895934;40;20161;-71
2021/05/14 00:17:58;;;;;;;23.95;7.78;;;10.00;99.90;;;;;;5915102;40;20041;-71
2021/05/14 00:22:03;;;;;;;21.45;7.22;;;10.10;99.90;;;;;;5913152;40;20061;-71
2021/05/14 00:26:13;;;;;;;29.40;7.72;;;10.10;99.90;;;;;;5913996;40;20085;-71
2021/05/14 00:30:20;;;;;;;22.88;7.82;;;10.10;99.90;;;;;;5914370;40;20505;-70
2021/05/14 00:34:25;;;;;;;26.80;7.95;;;10.10;99.90;;;;;;5912110;40;20057;-71
2021/05/14 00:38:32;;;;;;;28.95;7.13;;;10.10;99.90;;;;;;5914791;40;20090;-71
2021/05/14 00:42:39;;;;;;;23.02;7.15;;;10.10;99.90;;;;;;5894664;40;20033;-71
2021/05/14 00:46:46;;;;;;;28.00;7.30;;;10.10;99.90;;;;;;5913630;40;20102;-71
2021/05/14 00:50:51;;;;;;;30.45;7.40;;;10.10;99.90;;;;;;5902548;40;20147;-71
2021/05/14 00:54:58;;;;;;;31.30;7.80;;;10.00;99.90;;;;;;5911709;40;20100;-71
2021/05/14 00:59:01;;;;;;;34.08;8.15;;;10.00;99.90;;;;;;5915119;40;20130;-71
2021/05/14 01:03:14;;;;;;;29.83;7.35;;;10.00;99.90;;;;;;5914733;40;20060;-72
2021/05/14 01:07:20;;;;;;;31.55;7.25;;;10.00;99.90;;;;;;5911355;40;20061;-71
2021/05/14 01:11:25;;;;;;;25.40;7.45;;;10.00;99.90;;;;;;5912098;40;20053;-71
2021/05/14 01:15:30;;;;;;;30.73;6.78;;;10.00;99.90;;;;;;5915289;40;20085;-71
2021/05/14 01:19:39;;;;;;;29.88;7.55;;;10.00;99.90;;;;;;5913852;40;20691;-71
2021/05/14 01:23:47;;;;;;;37.60;7.93;;;10.00;99.90;;;;;;5905635;40;20293;-71
2021/05/14 01:27:52;;;;;;;25.38;6.97;;;10.10;99.90;;;;;;5912247;40;20143;-71
2021/05/14 01:31:57;;;;;;;34.33;8.38;;;10.10;99.90;;;;;;5903073;40;20143;-71
2021/05/14 01:36:05;;;;;;;33.35;9.15;;;10.10;99.90;;;;;;5915069;40;20453;-71
2021/05/14 01:40:14;;;;;;;30.83;9.77;;;10.10;99.90;;;;;;5902602;40;20111;-70
2021/05/14 01:44:19;;;;;;;32.97;10.18;;;10.20;99.90;;;;;;5912760;40;20103;-70
2021/05/14 01:48:24;;;;;;;40.25;9.60;;;10.10;99.90;;;;;;5912728;40;20440;-70
2021/05/14 01:52:29;;;;;;;32.90;9.93;;;10.00;99.90;;;;;;5913556;40;20076;-72
2021/05/14 01:56:34;;;;;;;39.00;10.27;;;10.10;99.90;;;;;;5912984;40;20077;-70
2021/05/14 02:00:41;;;;;;;39.22;11.20;;;10.30;99.90;;;;;;5903530;40;20154;-70
2021/05/14 02:04:46;;;;;;;34.85;11.23;;;10.00;99.90;;;;;;5901032;40;20077;-71
2021/05/14 02:08:50;;;;;;;36.88;10.10;;;10.00;99.90;;;;;;5904949;40;20072;-70
2021/05/14 02:12:55;;;;;;;42.55;12.68;;;10.00;99.90;;;;;;5911164;40;20129;-71
2021/05/14 02:16:59;;;;;;;34.10;11.57;;;10.00;99.90;;;;;;5903825;40;20045;-70
2021/05/14 02:21:07;;;;;;;37.63;11.93;;;10.00;99.90;;;;;;5906712;40;20045;-71
2021/05/14 02:25:16;;;;;;;32.58;10.57;;;10.00;99.90;;;;;;5908038;40;20072;-70
2021/05/14 02:29:21;;;;;;;40.75;11.65;;;9.90;99.90;;;;;;5910823;40;20068;-71
2021/05/14 02:33:26;;;;;;;41.28;11.65;;;9.90;99.90;;;;;;5901604;40;20057;-71
2021/05/14 02:37:30;;;;;;;38.78;11.35;;;9.90;99.90;;;;;;5905218;40;20764;-70
2021/05/14 02:41:42;;;;;;;47.78;13.95;;;9.90;99.90;;;;;;5911373;40;20053;-71
2021/05/14 02:45:46;;;;;;;44.58;13.95;;;9.90;99.90;;;;;;5912235;40;20320;-71
2021/05/14 02:49:51;;;;;;;49.63;14.10;;;9.90;99.90;;;;;;5903631;40;20060;-72
2021/05/14 02:53:55;;;;;;;45.03;12.27;;;9.90;99.90;;;;;;5914404;40;20064;-72
2021/05/14 02:58:02;;;;;;;51.10;12.98;;;9.90;99.90;;;;;;5910866;40;20045;-71
2021/05/14 03:02:07;;;;;;;53.55;12.77;;;9.90;99.90;;;;;;5913208;40;20048;-71
2021/05/14 03:06:14;;;;;;;35.28;11.25;;;9.90;99.90;;;;;;5905433;40;20059;-70
2021/05/14 03:10:19;;;;;;;45.15;12.68;;;9.90;99.90;;;;;;5911053;40;20057;-71
2021/05/14 03:14:24;;;;;;;50.65;12.88;;;10.00;99.90;;;;;;5913719;40;20033;-71
2021/05/14 03:18:33;;;;;;;41.10;11.93;;;10.00;99.90;;;;;;5912246;40;20037;-71
2021/05/14 03:22:40;;;;;;;38.92;12.55;;;9.90;99.90;;;;;;5900522;40;20162;-71
2021/05/14 03:26:51;;;;;;;42.17;12.05;;;10.00;99.90;;;;;;5902935;40;20041;-71
2021/05/14 03:31:01;;;;;;;49.10;11.05;;;10.00;99.90;;;;;;5911058;40;20045;-71
2021/05/14 03:35:08;;;;;;;50.33;12.63;;;10.00;99.90;;;;;;5908715;40;20033;-71
2021/05/14 03:39:14;;;;;;;52.30;13.48;;;10.00;99.90;;;;;;5910844;40;20048;-71
2021/05/14 03:43:21;;;;;;;42.17;12.30;;;10.00;99.90;;;;;;5911886;40;20045;-71
2021/05/14 03:47:29;;;;;;;59.15;14.32;;;10.00;99.90;;;;;;5895631;40;20061;-71
2021/05/14 03:51:35;;;;;;;53.90;13.85;;;10.00;99.90;;;;;;5896278;40;20059;-71
2021/05/14 03:55:37;;;;;;;50.92;14.27;;;10.00;99.90;;;;;;5913843;40;20045;-71
2021/05/14 03:59:42;;;;;;;66.32;14.20;;;10.00;99.90;;;;;;5905396;40;20336;-71
2021/05/14 04:03:50;;;;;;;64.40;14.50;;;10.00;99.90;;;;;;5915432;40;20044;-72
2021/05/14 04:07:57;;;;;;;49.92;12.93;;;10.00;99.90;;;;;;5911875;40;20053;-71
2021/05/14 04:12:11;;;;;;;65.45;13.57;;;10.00;99.90;;;;;;5915220;40;20211;-71
2021/05/14 04:16:21;;;;;;;47.70;13.70;;;10.00;99.90;;;;;;5904833;40;20102;-70
2021/05/14 04:20:28;;;;;;;44.30;12.85;;;10.00;99.90;;;;;;5914953;40;20367;-70
2021/05/14 04:24:35;;;;;;;37.58;12.10;;;10.00;99.90;;;;;;5902708;40;20061;-71
2021/05/14 04:28:40;;;;;;;44.05;11.85;;;10.00;99.90;;;;;;5899529;40;20067;-71
2021/05/14 04:32:47;;;;;;;40.15;13.02;;;10.00;99.90;;;;;;5903555;40;20065;-70
2021/05/14 04:36:52;;;;;;;47.63;12.43;;;10.00;99.90;;;;;;5903795;40;20051;-72
2021/05/14 04:40:57;;;;;;;40.08;13.20;;;10.00;99.90;;;;;;5914251;40;20143;-71
2021/05/14 04:45:05;;;;;;;47.67;11.85;;;10.10;99.90;;;;;;5903506;40;20517;-71
2021/05/14 04:49:13;;;;;;;53.05;13.75;;;10.00;99.90;;;;;;5912327;40;20049;-72
2021/05/14 04:53:21;;;;;;;40.78;12.23;;;10.10;99.90;;;;;;5917171;40;20624;-71
2021/05/14 04:57:28;;;;;;;43.30;13.27;;;10.10;99.90;;;;;;5914456;40;20054;-70
2021/05/14 05:01:30;;;;;;;41.95;13.13;;;10.10;99.90;;;;;;5915542;40;20228;-71
2021/05/14 05:05:39;;;;;;;48.15;13.90;;;10.10;99.90;;;;;;5914648;40;20049;-70
2021/05/14 05:09:47;;;;;;;53.65;14.60;;;10.10;99.90;;;;;;5913254;40;20539;-71
2021/05/14 05:13:54;;;;;;;55.38;17.05;;;10.10;99.90;;;;;;5914698;40;20084;-71
2021/05/14 05:18:01;;;;;;;44.97;15.80;;;10.00;99.90;;;;;;5914696;40;20530;-71
2021/05/14 05:22:11;;;;;;;57.40;16.60;;;10.10;99.90;;;;;;5898507;40;20055;-71
2021/05/14 05:26:21;;;;;;;62.67;18.58;;;10.00;99.90;;;;;;5896861;40;20776;-71
2021/05/14 05:30:28;;;;;;;61.65;17.15;;;10.10;99.90;;;;;;5913025;40;20065;-68
2021/05/14 05:34:33;;;;;;;52.90;17.50;;;10.10;99.90;;;;;;5916280;40;20096;-68
2021/05/14 05:38:38;;;;;;;60.42;16.90;;;10.10;99.90;;;;;;5913177;40;20446;-72
2021/05/14 05:42:43;;;;;;;54.80;15.10;;;10.10;99.90;;;;;;5909905;40;20029;-72
2021/05/14 05:46:47;;;;;;;44.63;15.60;;;10.10;99.90;;;;;;5903784;40;20133;-71
2021/05/14 05:50:54;;;;;;;52.60;17.77;;;10.10;99.90;;;;;;5908012;40;20632;-72
2021/05/14 05:54:59;;;;;;;42.75;17.75;;;10.00;99.90;;;;;;5904751;40;20520;-72
2021/05/14 05:59:06;;;;;;;44.47;18.05;;;10.10;99.90;;;;;;5906427;40;20124;-70
2021/05/14 06:03:13;;;;;;;44.97;18.13;;;10.00;99.90;;;;;;5909621;40;20134;-71
2021/05/14 06:07:20;;;;;;;47.22;16.80;;;10.00;99.90;;;;;;5907052;40;20055;-71
2021/05/14 06:11:27;;;;;;;40.08;15.18;;;10.10;99.90;;;;;;5913957;40;20382;-71
2021/05/14 06:15:35;;;;;;;32.85;14.52;;;10.20;99.90;;;;;;5913225;40;20064;-71
2021/05/14 06:20:02;;;;;;;31.60;13.98;;;10.20;99.90;;;;;;5912777;40;20114;-72
2021/05/14 06:24:07;;;;;;;25.48;11.85;;;10.30;99.90;;;;;;5911023;40;20099;-72
2021/05/14 06:28:17;;;;;;;23.00;11.75;;;10.30;99.90;;;;;;5913099;40;20395;-71
2021/05/14 06:32:25;;;;;;;27.48;11.32;;;10.40;99.90;;;;;;5899619;40;20375;-71
2021/05/14 06:36:30;;;;;;;21.80;10.20;;;10.50;99.90;;;;;;5912386;40;21257;-72
2021/05/14 06:40:34;;;;;;;24.33;10.68;;;10.50;99.90;;;;;;5913372;40;20414;-72
2021/05/14 06:44:39;;;;;;;26.13;10.30;;;10.50;99.90;;;;;;5909841;40;20698;-72
2021/05/14 06:48:46;;;;;;;25.83;10.73;;;10.60;99.90;;;;;;5903104;40;20064;-71
2021/05/14 06:52:53;;;;;;;24.65;10.30;;;10.60;99.90;;;;;;5901171;40;20104;-71
2021/05/14 06:56:58;;;;;;;31.88;10.65;;;10.60;99.90;;;;;;5899808;40;20083;-72
2021/05/14 07:01:03;;;;;;;24.98;10.65;;;10.60;99.90;;;;;;5912150;40;20052;-72
2021/05/14 07:05:08;;;;;;;24.17;10.82;;;10.70;99.90;;;;;;5912327;40;20438;-72
2021/05/14 07:09:14;;;;;;;28.25;9.93;;;10.70;99.90;;;;;;5912790;40;20485;-72
2021/05/14 07:13:19;;;;;;;26.27;8.75;;;10.70;99.90;;;;;;5913969;40;20059;-71
2021/05/14 07:17:24;;;;;;;23.23;8.73;;;10.80;99.90;;;;;;5911753;40;20064;-67
2021/05/14 07:21:29;;;;;;;20.48;7.85;;;10.80;99.90;;;;;;5908452;40;20247;-68
2021/05/14 07:25:36;;;;;;;15.63;7.57;;;10.70;99.90;;;;;;5898653;40;20057;-68
2021/05/14 07:29:43;;;;;;;25.20;8.25;;;10.80;99.90;;;;;;5912588;40;20045;-68
2021/05/14 07:33:52;;;;;;;19.55;8.05;;;10.80;99.90;;;;;;5910823;40;20044;-67
2021/05/14 07:37:57;;;;;;;22.05;8.10;;;10.80;99.90;;;;;;5903117;40;20061;-68
2021/05/14 07:42:05;;;;;;;17.27;7.85;;;11.60;99.90;;;;;;5912893;40;20068;-67
2021/05/14 07:46:09;;;;;;;18.75;7.35;;;10.90;99.90;;;;;;5913355;40;20306;-67
2021/05/14 07:50:14;;;;;;;16.55;7.75;;;10.90;99.90;;;;;;5906540;40;20045;-68
2021/05/14 07:54:19;;;;;;;17.08;7.30;;;11.00;99.90;;;;;;5911245;40;20059;-67
2021/05/14 07:58:25;;;;;;;18.33;6.72;;;11.00;99.90;;;;;;5908266;40;20056;-67
2021/05/14 08:02:30;;;;;;;16.98;7.47;;;11.00;99.90;;;;;;5912726;40;20451;-66
2021/05/14 08:06:35;;;;;;;21.52;8.32;;;11.00;99.90;;;;;;5906205;40;20064;-68
2021/05/14 08:10:42;;;;;;;20.35;7.60;;;11.00;99.90;;;;;;5912706;40;20159;-67
2021/05/14 08:14:58;;;;;;;16.35;7.85;;;11.10;99.90;;;;;;5903675;40;20060;-67
2021/05/14 08:19:03;;;;;;;16.88;7.78;;;11.10;99.90;;;;;;5910837;40;20071;-67
2021/05/14 08:23:15;;;;;;;17.90;8.23;;;11.00;99.90;;;;;;5914119;40;20428;-67
2021/05/14 08:27:21;;;;;;;15.38;7.25;;;11.10;99.90;;;;;;5901900;40;20051;-66
2021/05/14 08:31:28;;;;;;;15.90;7.00;;;11.00;99.90;;;;;;5911420;40;20068;-68
2021/05/14 08:35:35;;;;;;;19.27;8.70;;;10.90;99.90;;;;;;5911551;40;20063;-67
2021/05/14 08:39:42;;;;;;;17.08;7.75;;;11.00;99.90;;;;;;5912599;40;20092;-67
2021/05/14 08:43:50;;;;;;;17.85;8.07;;;10.90;99.90;;;;;;5910606;40;20061;-67
2021/05/14 08:47:56;;;;;;;23.45;8.50;;;11.00;99.90;;;;;;5906917;40;20045;-68
2021/05/14 08:52:08;;;;;;;25.02;9.85;;;10.90;99.90;;;;;;5912718;40;20591;-69
2021/05/14 08:56:13;;;;;;;20.55;8.88;;;10.90;99.90;;;;;;5904335;40;20057;-69
2021/05/14 09:00:21;;;;;;;21.83;8.35;;;10.90;99.90;;;;;;5904033;40;20171;-68
2021/05/14 09:04:35;;;;;;;23.38;9.80;;;11.00;99.90;;;;;;5911182;40;20465;-68
2021/05/14 09:08:39;;;;;;;22.10;9.32;;;11.00;99.90;;;;;;5899202;40;20068;-68
2021/05/14 09:12:45;;;;;;;20.85;8.70;;;11.00;99.90;;;;;;5914740;40;20041;-68
2021/05/14 09:16:49;;;;;;;19.90;8.25;;;11.00;99.90;;;;;;5900669;40;20074;-68
2021/05/14 09:20:59;;;;;;;25.30;8.82;;;11.00;99.90;;;;;;5912082;40;20048;-67
2021/05/14 09:25:06;;;;;;;24.85;9.43;;;11.00;99.90;;;;;;5895428;40;20464;-69
2021/05/14 09:29:11;;;;;;;27.70;10.27;;;11.00;99.90;;;;;;5910029;40;20111;-68
2021/05/14 09:33:25;;;;;;;24.52;9.52;;;11.00;99.90;;;;;;5913220;40;20048;-68
2021/05/14 09:37:30;;;;;;;20.33;8.35;;;11.00;99.90;;;;;;5914048;40;20776;-68
2021/05/14 09:41:44;;;;;;;22.95;9.60;;;11.00;99.90;;;;;;5914969;40;20034;-68
2021/05/14 09:45:48;;;;;;;26.83;9.43;;;11.10;99.90;;;;;;5915095;40;20041;-68
2021/05/14 09:49:53;;;;;;;27.95;10.48;;;11.10;99.90;;;;;;5914186;40;20085;-68
2021/05/14 09:54:30;;;;;;;30.08;11.30;;;11.10;99.90;;;;;;5904697;40;20051;-68
2021/05/14 09:58:37;;;;;;;35.47;11.07;;;11.20;99.90;;;;;;5903023;40;20300;-68
2021/05/14 10:02:48;;;;;;;29.02;10.98;;;11.20;99.90;;;;;;5914338;40;20041;-68
2021/05/14 10:06:57;;;;;;;21.50;10.10;;;10.80;99.90;;;;;;5910422;40;20544;-68
2021/05/14 10:11:02;;;;;;;28.27;10.48;;;11.20;99.90;;;;;;5915603;40;20424;-68
2021/05/14 10:15:12;;;;;;;29.38;11.27;;;11.20;99.90;;;;;;5902822;40;20346;-68
2021/05/14 10:19:22;;;;;;;25.58;11.35;;;11.20;99.90;;;;;;5912039;40;20106;-68
2021/05/14 10:23:30;;;;;;;24.98;11.38;;;11.20;99.90;;;;;;5902993;40;20045;-66
2021/05/14 10:27:40;;;;;;;19.38;9.93;;;11.30;99.90;;;;;;5911734;40;20068;-69
2021/05/14 10:31:46;;;;;;;19.42;9.57;;;11.30;99.90;;;;;;5903733;40;20382;-68
2021/05/14 10:35:51;;;;;;;24.80;10.75;;;11.30;99.90;;;;;;5909711;40;20134;-68
2021/05/14 10:39:58;;;;;;;21.10;9.15;;;11.40;99.90;;;;;;5908866;40;20069;-68
2021/05/14 10:44:07;;;;;;;25.08;10.27;;;11.40;99.90;;;;;;5913273;40;20041;-68
2021/05/14 10:48:17;;;;;;;23.95;8.65;;;11.40;99.90;;;;;;5913499;40;20063;-69
2021/05/14 10:52:21;;;;;;;23.75;8.93;;;11.40;99.90;;;;;;5912925;40;20045;-68
2021/05/14 10:56:32;;;;;;;24.60;9.35;;;11.30;99.90;;;;;;5912546;40;20048;-68
2021/05/14 11:00:43;;;;;;;23.42;8.88;;;11.30;99.90;;;;;;5904717;40;20049;-67
2021/05/14 11:04:48;;;;;;;23.55;8.60;;;11.20;99.90;;;;;;5893520;40;20530;-67
2021/05/14 11:09:05;;;;;;;21.98;8.30;;;11.20;99.90;;;;;;5904236;40;20094;-67
2021/05/14 11:13:49;;;;;;;21.08;8.23;;;11.20;99.90;;;;;;5913539;40;20536;-69
2021/05/14 11:18:16;;;;;;;28.75;8.70;;;11.20;99.90;;;;;;5911984;40;20044;-68
2021/05/14 11:22:36;;;;;;;25.65;9.93;;;11.20;99.90;;;;;;5906136;40;20053;-68
2021/05/14 11:26:57;;;;;;;21.83;8.80;;;11.20;99.90;;;;;;5914414;40;20060;-68
2021/05/14 11:31:03;;;;;;;26.95;9.23;;;11.20;99.90;;;;;;5914484;40;20041;-69
2021/05/14 11:35:19;;;;;;;27.15;9.25;;;11.10;99.90;;;;;;5906041;40;20119;-69
2021/05/14 11:39:23;;;;;;;28.40;8.85;;;11.20;99.90;;;;;;5910375;40;20353;-68
2021/05/14 11:43:29;;;;;;;21.88;9.30;;;11.20;99.90;;;;;;5912950;40;20065;-68
2021/05/14 11:47:34;;;;;;;26.17;9.82;;;11.00;99.90;;;;;;5914404;40;20134;-69
2021/05/14 11:51:46;;;;;;;20.92;8.85;;;11.20;99.90;;;;;;5905540;40;20589;-68
2021/05/14 11:55:54;;;;;;;24.23;9.27;;;11.20;99.90;;;;;;5914202;40;20053;-68
2021/05/14 11:59:59;;;;;;;21.92;8.40;;;11.20;99.90;;;;;;5914563;40;20477;-68
2021/05/14 12:04:06;;;;;;;19.85;8.45;;;11.30;99.90;;;;;;5911813;40;20049;-68
2021/05/14 12:08:16;;;;;;;21.25;7.43;;;11.30;99.90;;;;;;5913098;40;20088;-69
2021/05/14 12:12:21;;;;;;;21.85;7.85;;;11.30;99.90;;;;;;5913629;40;20053;-68
2021/05/14 12:16:35;;;;;;;22.63;8.50;;;11.30;99.90;;;;;;5913739;40;20057;-67
2021/05/14 12:20:44;;;;;;;18.05;6.88;;;11.30;99.90;;;;;;5913326;40;20052;-68
2021/05/14 12:24:53;;;;;;;23.27;7.40;;;11.30;99.90;;;;;;5914580;40;20048;-69
2021/05/14 12:28:55;;;;;;;22.75;7.25;;;11.30;99.90;;;;;;5915901;40;20081;-68
2021/05/14 12:33:00;;;;;;;20.38;7.20;;;11.30;99.90;;;;;;5916022;40;20123;-68
2021/05/14 12:37:05;;;;;;;14.70;6.20;;;11.30;99.90;;;;;;5915268;40;20067;-68
2021/05/14 12:41:25;;;;;;;23.70;6.75;;;11.30;99.90;;;;;;5916553;40;20049;-68
2021/05/14 12:45:35;;;;;;;19.40;7.18;;;11.30;99.90;;;;;;5913138;40;20507;-68
2021/05/14 12:49:46;;;;;;;15.73;6.68;;;11.30;99.90;;;;;;5914066;40;20061;-67
2021/05/14 12:53:57;;;;;;;20.48;7.32;;;11.30;99.90;;;;;;5915546;39;20524;-68
2021/05/14 12:58:18;;;;;;;16.02;7.03;;;11.30;99.90;;;;;;5910848;40;20454;-68
2021/05/14 13:02:27;;;;;;;18.02;7.78;;;11.30;99.90;;;;;;5887449;40;20045;-68
2021/05/14 13:06:34;;;;;;;18.70;7.25;;;11.30;99.90;;;;;;5911793;40;20174;-69
2021/05/14 13:10:48;;;;;;;15.98;7.82;;;11.30;99.90;;;;;;5914104;40;20041;-68
2021/05/14 13:14:54;;;;;;;18.05;8.05;;;11.30;99.90;;;;;;5904946;40;20064;-68
2021/05/14 13:18:59;;;;;;;19.08;7.38;;;11.30;99.90;;;;;;5902512;40;20088;-67
2021/05/14 13:23:01;;;;;;;21.00;7.68;;;11.20;99.90;;;;;;5915622;40;20091;-68
2021/05/14 13:27:03;;;;;;;20.23;7.43;;;11.20;99.90;;;;;;5907738;40;20087;-68
2021/05/14 13:31:08;;;;;;;23.95;7.97;;;11.20;99.90;;;;;;5911693;40;20057;-68
2021/05/14 13:35:20;;;;;;;28.85;9.20;;;11.20;99.90;;;;;;5913510;40;20053;-69
2021/05/14 13:39:29;;;;;;;26.90;8.90;;;11.20;99.90;;;;;;5912759;40;20131;-67
2021/05/14 13:43:36;;;;;;;26.65;9.18;;;11.20;99.90;;;;;;5914478;40;20077;-68
2021/05/14 13:47:41;;;;;;;22.58;9.48;;;11.10;99.90;;;;;;5915245;40;20647;-68
2021/05/14 13:51:48;;;;;;;24.17;10.63;;;11.20;99.90;;;;;;5906703;40;20064;-68
2021/05/14 13:55:56;;;;;;;23.02;10.88;;;11.10;99.90;;;;;;5916212;40;20063;-68
2021/05/14 14:00:04;;;;;;;23.50;9.85;;;11.20;99.90;;;;;;5913898;40;20126;-68
2021/05/14 14:04:15;;;;;;;22.42;9.07;;;11.20;99.90;;;;;;5905653;40;20186;-68
2021/05/14 14:08:20;;;;;;;17.33;8.35;;;11.20;99.90;;;;;;5905528;40;20029;-68
2021/05/14 14:12:27;;;;;;;18.75;8.10;;;11.20;99.90;;;;;;5913861;40;20045;-68
2021/05/14 14:16:34;;;;;;;16.90;8.05;;;11.10;99.90;;;;;;5912217;40;20043;-68
2021/05/14 14:20:38;;;;;;;18.67;8.18;;;11.10;99.90;;;;;;5912337;40;20055;-68
2021/05/14 14:24:46;;;;;;;18.85;7.85;;;11.10;99.90;;;;;;5914676;40;20411;-67
2021/05/14 14:28:51;;;;;;;21.73;7.60;;;11.10;99.90;;;;;;5912316;40;20089;-68
2021/05/14 14:32:55;;;;;;;18.98;8.00;;;11.10;99.90;;;;;;5911224;40;20060;-68
2021/05/14 14:37:02;;;;;;;25.92;8.48;;;11.20;99.90;;;;;;5911738;40;20064;-68
2021/05/14 14:41:07;;;;;;;22.80;8.77;;;11.10;99.90;;;;;;5905020;40;20089;-68
2021/05/14 14:45:14;;;;;;;22.35;9.15;;;11.10;99.90;;;;;;5911374;40;20061;-68
2021/05/14 14:49:19;;;;;;;25.60;8.77;;;11.10;99.90;;;;;;5910952;40;20053;-67
2021/05/14 14:53:26;;;;;;;24.35;8.38;;;11.10;99.90;;;;;;5902686;40;20052;-68
2021/05/14 14:57:35;;;;;;;20.10;8.27;;;11.00;99.90;;;;;;5911614;40;20729;-68
2021/05/14 15:01:40;;;;;;;21.67;9.07;;;11.00;99.90;;;;;;5903402;40;20428;-68
2021/05/14 15:05:50;;;;;;;19.30;8.80;;;10.90;99.90;;;;;;5915314;40;20533;-68
2021/05/14 15:09:51;;;;;;;23.83;8.10;;;11.00;99.90;;;;;;5906491;40;20100;-67
2021/05/14 15:13:53;;;;;;;20.20;8.73;;;11.00;99.90;;;;;;5905594;40;20409;-68
2021/05/14 15:17:58;;;;;;;18.80;8.55;;;10.90;99.90;;;;;;5914585;40;20633;-67
2021/05/14 15:22:05;;;;;;;21.15;7.82;;;11.00;99.90;;;;;;5908432;40;20309;-68
2021/05/14 15:26:13;;;;;;;20.23;7.78;;;11.00;99.90;;;;;;5913949;40;20061;-68
2021/05/14 15:30:21;;;;;;;15.98;7.32;;;11.00;99.90;;;;;;5906111;40;20110;-68
2021/05/14 15:34:36;;;;;;;17.67;6.65;;;10.80;99.90;;;;;;5912305;39;20053;-67
2021/05/14 15:38:40;;;;;;;16.85;7.22;;;10.90;99.90;;;;;;5897627;40;20048;-67
2021/05/14 15:42:45;;;;;;;19.95;7.25;;;10.90;99.90;;;;;;5910925;40;20081;-68
2021/05/14 15:46:50;;;;;;;14.80;6.90;;;10.90;99.90;;;;;;5907967;40;20064;-68
2021/05/14 15:50:57;;;;;;;16.98;7.13;;;11.00;99.90;;;;;;5910881;40;20049;-68
2021/05/14 15:55:03;;;;;;;13.88;6.78;;;10.90;99.90;;;;;;5904552;40;20044;-68
2021/05/14 15:59:05;;;;;;;18.25;7.90;;;10.90;99.90;;;;;;5908259;40;20081;-67
2021/05/14 16:03:07;;;;;;;17.55;7.90;;;10.80;99.90;;;;;;5915868;40;20191;-68
2021/05/14 16:07:12;;;;;;;17.65;8.60;;;10.80;99.90;;;;;;5912670;40;20049;-68
2021/05/14 16:11:21;;;;;;;21.50;8.48;;;10.90;99.90;;;;;;5902799;40;20045;-67
2021/05/14 16:15:25;;;;;;;21.98;8.63;;;10.80;99.90;;;;;;5911043;40;20048;-68
2021/05/14 16:19:34;;;;;;;17.35;8.68;;;10.70;99.90;;;;;;5915231;40;20068;-68
2021/05/14 16:23:41;;;;;;;20.75;9.00;;;10.80;99.90;;;;;;5911180;40;20272;-68
2021/05/14 16:27:46;;;;;;;17.90;8.82;;;10.80;99.90;;;;;;5909820;40;20084;-67
2021/05/14 16:31:51;;;;;;;18.58;8.00;;;10.70;99.90;;;;;;5913335;40;20408;-68
2021/05/14 16:35:57;;;;;;;18.98;8.70;;;10.70;99.90;;;;;;5916748;40;20515;-67
2021/05/14 16:40:03;;;;;;;14.00;7.75;;;10.70;99.90;;;;;;5892933;40;20126;-68
2021/05/14 16:44:07;;;;;;;20.83;9.35;;;10.50;99.90;;;;;;5903057;40;20053;-68
2021/05/14 16:48:12;;;;;;;19.00;10.10;;;10.50;99.90;;;;;;5914049;40;20339;-68
2021/05/14 16:52:20;;;;;;;20.60;9.45;;;10.40;99.90;;;;;;5905229;40;20053;-68
2021/05/14 16:56:29;;;;;;;26.67;10.30;;;10.40;99.90;;;;;;5915810;40;20057;-68
2021/05/14 17:00:34;;;;;;;19.08;10.65;;;10.40;99.90;;;;;;5910514;40;20048;-68
2021/05/14 17:04:41;;;;;;;24.10;10.73;;;10.30;99.90;;;;;;5896004;40;20060;-68
2021/05/14 17:08:46;;;;;;;23.17;10.25;;;10.30;99.90;;;;;;5903166;40;20060;-68
2021/05/14 17:12:52;;;;;;;20.73;10.43;;;10.30;99.90;;;;;;5911972;40;20448;-68
2021/05/14 17:17:00;;;;;;;21.40;10.90;;;10.20;99.90;;;;;;5915658;40;20123;-68
2021/05/14 17:21:05;;;;;;;16.98;10.27;;;10.20;99.90;;;;;;5904202;40;20045;-67
2021/05/14 17:25:15;;;;;;;20.23;9.75;;;10.10;99.90;;;;;;5914512;40;20049;-68
2021/05/14 17:29:21;;;;;;;23.00;11.13;;;10.10;99.90;;;;;;5913386;40;20418;-68
2021/05/14 17:33:28;;;;;;;22.98;10.90;;;10.10;99.90;;;;;;5905783;40;20045;-68
2021/05/14 17:37:35;;;;;;;22.55;10.68;;;10.20;99.90;;;;;;5896405;40;20069;-68
2021/05/14 17:41:40;;;;;;;23.15;9.77;;;10.20;99.90;;;;;;5910131;40;20433;-68
2021/05/14 17:45:45;;;;;;;17.27;9.50;;;10.00;99.90;;;;;;5912684;40;20313;-69
2021/05/14 17:49:50;;;;;;;21.27;10.52;;;10.00;99.90;;;;;;5901378;40;20060;-68
2021/05/14 17:53:54;;;;;;;28.58;10.85;;;10.00;99.90;;;;;;5905732;40;20107;-68
2021/05/14 17:58:04;;;;;;;22.38;11.63;;;10.00;99.90;;;;;;5893514;40;20065;-67
2021/05/14 18:02:09;;;;;;;19.33;10.55;;;10.00;99.90;;;;;;5909885;40;20367;-67
2021/05/14 18:06:16;;;;;;;23.17;13.18;;;10.00;99.90;;;;;;5911574;40;20053;-68
2021/05/14 18:10:21;;;;;;;28.67;12.88;;;10.00;99.90;;;;;;5900891;40;20138;-68
2021/05/14 18:14:26;;;;;;;30.70;13.20;;;10.00;99.90;;;;;;5913589;40;20147;-68
2021/05/14 18:18:39;;;;;;;28.35;13.13;;;10.00;99.90;;;;;;5912813;40;20392;-68
2021/05/14 18:22:45;;;;;;;23.15;11.18;;;10.00;99.90;;;;;;5911595;40;20049;-67
2021/05/14 18:26:52;;;;;;;22.67;12.07;;;10.00;99.90;;;;;;5900018;40;20438;-68
2021/05/14 18:30:58;;;;;;;27.27;12.23;;;9.90;99.90;;;;;;5904160;40;20347;-67
2021/05/14 18:35:03;;;;;;;25.65;11.70;;;9.90;99.90;;;;;;5917041;40;20060;-68
2021/05/14 18:39:08;;;;;;;23.10;11.48;;;9.80;99.90;;;;;;5909887;40;20126;-68
2021/05/14 18:43:15;;;;;;;27.73;12.80;;;9.80;99.90;;;;;;5903715;40;20052;-70
2021/05/14 18:47:23;;;;;;;24.70;10.05;;;9.80;99.90;;;;;;5913861;40;20051;-71
2021/05/14 18:51:28;;;;;;;21.30;10.88;;;10.10;99.90;;;;;;5896758;40;20053;-71
2021/05/14 18:55:32;;;;;;;21.38;10.27;;;9.80;99.90;;;;;;5906071;40;20138;-71
2021/05/14 18:59:37;;;;;;;29.75;12.10;;;9.80;99.90;;;;;;5905657;40;20623;-71
2021/05/14 19:03:42;;;;;;;25.80;10.48;;;9.70;99.90;;;;;;5915274;40;21364;-71
2021/05/14 19:07:46;;;;;;;21.67;10.73;;;9.70;99.90;;;;;;5913300;40;20042;-70
2021/05/14 19:11:54;;;;;;;28.70;12.75;;;9.70;99.90;;;;;;5905432;40;20433;-71
2021/05/14 19:16:05;;;;;;;19.95;11.32;;;9.60;99.90;;;;;;5912375;40;20111;-71
2021/05/14 19:20:11;;;;;;;23.90;11.10;;;9.60;99.90;;;;;;5914239;40;20650;-71
2021/05/14 19:24:28;;;;;;;25.35;10.40;;;9.60;99.90;;;;;;5913400;40;20048;-70
2021/05/14 19:46:43;;;;;;;25.60;10.50;;;9.70;99.90;;;;;;5914917;40;20060;-71
2021/05/14 19:50:33;;;;;;;21.75;10.32;;;9.60;99.90;;;;;;5913679;40;20060;-71
2021/05/14 19:54:41;;;;;;;23.50;9.57;;;9.60;99.90;;;;;;5916161;40;20110;-71
2021/05/14 19:58:46;;;;;;;26.38;10.73;;;9.60;99.90;;;;;;5917432;40;20055;-71
2021/05/14 20:02:51;;;;;;;19.92;9.70;;;9.60;99.90;;;;;;5906747;40;20037;-70
2021/05/14 20:06:56;;;;;;;28.83;10.27;;;9.50;99.90;;;;;;5905552;40;20178;-70
2021/05/14 20:11:06;;;;;;;28.73;10.25;;;9.50;99.90;;;;;;5911007;40;20330;-70
2021/05/14 20:15:11;;;;;;;22.90;9.10;;;9.50;99.90;;;;;;5911159;40;20425;-70
2021/05/14 20:19:15;;;;;;;20.08;9.43;;;9.50;99.90;;;;;;5916773;40;20057;-70
2021/05/14 20:23:20;;;;;;;18.02;8.48;;;9.50;99.90;;;;;;5905048;40;20412;-71
2021/05/14 20:27:27;;;;;;;22.73;8.40;;;9.50;99.90;;;;;;5916009;40;20411;-70
2021/05/14 20:31:36;;;;;;;20.05;8.93;;;9.50;99.90;;;;;;5906712;40;20424;-70
2021/05/14 20:35:46;;;;;;;16.75;8.35;;;9.50;99.90;;;;;;5915853;40;20513;-70
2021/05/14 20:40:03;;;;;;;16.87;9.03;;;9.50;99.90;;;;;;5898956;40;20060;-70
2021/05/14 20:44:08;;;;;;;17.48;9.55;;;9.50;99.90;;;;;;5905183;40;20440;-71
2021/05/14 20:48:10;;;;;;;22.65;9.98;;;9.50;99.90;;;;;;5916889;40;20333;-70
2021/05/14 20:52:20;;;;;;;16.63;8.50;;;9.40;99.90;;;;;;5914439;40;20051;-70
2021/05/14 20:56:42;;;;;;;23.20;9.10;;;9.50;99.90;;;;;;5915253;40;20080;-70
2021/05/14 21:00:49;;;;;;;17.17;8.40;;;9.50;99.90;;;;;;5918777;40;20095;-71
2021/05/14 21:04:51;;;;;;;22.63;8.52;;;9.50;99.90;;;;;;5900165;40;20053;-69
2021/05/14 21:08:56;;;;;;;17.20;7.68;;;9.50;99.90;;;;;;5916374;40;20138;-70
2021/05/14 21:13:01;;;;;;;18.08;9.02;;;9.40;99.90;;;;;;5914142;40;20053;-70
2021/05/14 21:17:06;;;;;;;20.80;8.40;;;9.40;99.90;;;;;;5916214;40;20045;-71
2021/05/14 21:21:22;;;;;;;16.73;7.63;;;9.40;99.90;;;;;;5916492;40;20063;-71